Time;durP1;ratioP1;P1;durP2;ratioP2;P2;SDS_P1;SDS_P2;PMS_P1;PMS_P2;Temp;Humidity;BMP_temperature;BMP_pressure;BME280_temperature;BME280_humidity;BME280_pressure;Samples;Min_cycle;Max_cycle;Signal;HPM_P1;HPM_P2
2023/09/19 00:02:16;;;;;;;12.85;3.65;;;;;;;13.85;100.00;100703.38;6217604;23;20389;-69
2023/09/19 00:04:42;;;;;;;12.10;3.30;;;;;;;13.82;100.00;100704.31;6243275;23;20014;-69
2023/09/19 00:07:09;;;;;;;14.07;3.75;;;;;;;13.80;100.00;100716.63;6192660;22;20028;-69
2023/09/19 00:09:37;;;;;;;12.48;2.95;;;;;;;13.82;100.00;100708.69;6243773;23;20035;-69
2023/09/19 00:12:06;;;;;;;12.48;3.25;;;;;;;13.73;100.00;100720.34;6217853;23;20007;-68
2023/09/19 00:14:35;;;;;;;10.02;3.25;;;;;;;13.73;100.00;100722.13;6218464;23;20036;-69
2023/09/19 00:17:05;;;;;;;14.20;3.58;;;;;;;13.73;100.00;100730.03;6194284;22;20004;-69
2023/09/19 00:19:32;;;;;;;10.93;3.50;;;;;;;13.68;100.00;100723.09;6217696;23;20048;-69
2023/09/19 00:21:58;;;;;;;13.30;3.20;;;;;;;13.68;100.00;100722.25;6192419;23;20014;-69
2023/09/19 00:24:23;;;;;;;12.48;3.38;;;;;;;13.65;100.00;100727.59;6242523;23;20418;-69
2023/09/19 00:26:49;;;;;;;11.07;3.30;;;;;;;13.60;100.00;100725.06;6190803;22;20015;-69
2023/09/19 00:29:16;;;;;;;12.20;3.55;;;;;;;13.58;100.00;100737.41;6216844;23;20012;-70
2023/09/19 00:31:44;;;;;;;12.30;3.00;;;;;;;13.51;100.00;100744.59;6218030;23;20008;-69
2023/09/19 00:34:10;;;;;;;13.70;3.67;;;;;;;13.47;100.00;100737.69;6242380;23;20004;-69
2023/09/19 00:36:39;;;;;;;14.45;3.90;;;;;;;13.42;100.00;100736.94;6217674;23;20398;-69
2023/09/19 00:39:05;;;;;;;13.27;3.38;;;;;;;13.40;100.00;100745.78;6241768;22;20032;-69
2023/09/19 00:41:32;;;;;;;12.00;3.80;;;;;;;13.43;100.00;100749.22;6216307;23;20032;-69
2023/09/19 00:43:57;;;;;;;15.10;3.90;;;;;;;13.39;100.00;100750.19;6191224;23;20085;-69
2023/09/19 00:46:23;;;;;;;10.77;3.25;;;;;;;13.40;100.00;100749.25;6242081;23;20091;-69
2023/09/19 00:48:49;;;;;;;12.90;3.40;;;;;;;13.41;100.00;100745.75;6191381;23;20007;-70
2023/09/19 00:51:19;;;;;;;11.13;3.53;;;;;;;13.42;100.00;100759.75;6218029;23;20008;-68
2023/09/19 00:53:46;;;;;;;13.68;3.38;;;;;;;13.38;100.00;100756.34;6217674;23;20158;-68
2023/09/19 00:56:12;;;;;;;13.73;4.25;;;;;;;13.34;100.00;100762.56;6217950;23;20012;-69
2023/09/19 00:58:38;;;;;;;14.30;3.35;;;;;;;13.32;100.00;100765.22;6216963;23;20062;-69
2023/09/19 01:01:06;;;;;;;10.63;3.40;;;;;;;13.36;100.00;100775.69;6217784;23;20047;-69
2023/09/19 01:03:33;;;;;;;10.07;3.17;;;;;;;13.32;100.00;100777.53;6241843;23;20000;-68
2023/09/19 01:06:00;;;;;;;12.95;3.17;;;;;;;13.24;100.00;100784.72;6217492;23;20004;-69
2023/09/19 01:08:29;;;;;;;11.00;3.30;;;;;;;13.22;100.00;100779.50;6217238;23;20123;-69
2023/09/19 01:11:13;;;;;;;13.27;3.72;;;;;;;13.25;100.00;100786.47;6217555;23;20042;-69
2023/09/19 01:13:41;;;;;;;9.88;3.25;;;;;;;13.19;100.00;100782.22;6216450;23;20039;-69
2023/09/19 01:16:28;;;;;;;13.23;3.35;;;;;;;13.18;100.00;100786.59;6244572;23;20087;-68
2023/09/19 01:19:21;;;;;;;11.35;3.53;;;;;;;13.15;100.00;100786.66;6215715;23;20000;-70
2023/09/19 01:22:17;;;;;;;14.45;3.50;;;;;;;13.19;100.00;100792.75;6216345;23;20019;-70
2023/09/19 01:24:46;;;;;;;14.30;3.38;;;;;;;13.11;100.00;100795.53;6217648;23;20015;-70
2023/09/19 01:27:20;;;;;;;11.35;3.05;;;;;;;13.11;100.00;100792.91;6215836;22;20007;-69
2023/09/19 01:29:48;;;;;;;13.73;3.15;;;;;;;13.09;100.00;100791.22;6216820;23;20012;-69
2023/09/19 01:32:19;;;;;;;12.68;3.33;;;;;;;13.08;99.77;100795.59;6215940;23;20035;-68
2023/09/19 01:34:50;;;;;;;13.90;3.63;;;;;;;13.05;99.85;100800.94;6217463;23;20054;-69
2023/09/19 01:37:19;;;;;;;15.63;3.42;;;;;;;13.07;99.08;100799.13;6216478;23;20091;-68
2023/09/19 01:39:51;;;;;;;9.23;3.13;;;;;;;12.99;99.75;100808.97;6192250;23;20119;-68
2023/09/19 01:42:42;;;;;;;11.05;3.60;;;;;;;13.00;99.48;100803.69;6216022;23;20472;-68
2023/09/19 01:45:18;;;;;;;15.00;3.67;;;;;;;12.95;99.24;100816.06;6202807;23;20083;-68
2023/09/19 01:47:55;;;;;;;13.25;3.83;;;;;;;12.92;98.68;100810.88;6216294;23;20334;-68
2023/09/19 01:50:40;;;;;;;9.98;3.30;;;;;;;12.96;97.92;100806.44;6216863;23;20015;-68
2023/09/19 01:53:28;;;;;;;15.82;3.95;;;;;;;12.94;97.51;100810.84;6214748;23;20201;-68
2023/09/19 01:55:55;;;;;;;10.00;3.00;;;;;;;12.89;97.44;100812.72;6216957;23;20083;-69
2023/09/19 01:58:25;;;;;;;14.32;3.28;;;;;;;12.92;96.70;100810.00;6166614;23;20012;-68
2023/09/19 02:00:51;;;;;;;10.60;2.85;;;;;;;12.88;96.79;100808.34;6217084;23;20008;-68
2023/09/19 02:03:18;;;;;;;12.27;3.22;;;;;;;12.89;96.16;100810.09;6215803;23;20438;-67
2023/09/19 02:05:53;;;;;;;13.60;3.28;;;;;;;12.88;96.74;100813.59;6191459;23;20038;-68
2023/09/19 02:08:21;;;;;;;12.50;3.83;;;;;;;12.82;96.27;100804.09;6238376;22;20146;-68
2023/09/19 02:10:49;;;;;;;11.85;3.20;;;;;;;12.81;95.77;100807.59;6241875;23;20323;-68
2023/09/19 02:13:24;;;;;;;12.82;3.40;;;;;;;12.79;96.92;100804.16;6241468;23;20134;-67
2023/09/19 02:15:50;;;;;;;11.85;2.90;;;;;;;12.79;95.66;100799.75;6192594;23;20000;-68
2023/09/19 02:18:15;;;;;;;12.38;3.55;;;;;;;12.82;95.14;100804.94;6215271;23;20012;-68
2023/09/19 02:20:41;;;;;;;10.50;3.22;;;;;;;12.78;95.21;100812.94;6241459;23;20012;-68
2023/09/19 02:23:08;;;;;;;12.77;3.05;;;;;;;12.71;95.05;100811.34;6190236;23;20089;-68
2023/09/19 02:25:35;;;;;;;10.88;3.15;;;;;;;12.71;95.07;100806.94;6216669;23;20012;-68
2023/09/19 02:28:03;;;;;;;11.68;3.40;;;;;;;12.70;94.75;100814.84;6190967;23;20426;-68
2023/09/19 02:30:29;;;;;;;10.98;3.22;;;;;;;12.67;94.55;100814.91;6217274;23;20438;-68
2023/09/19 02:32:55;;;;;;;13.05;3.13;;;;;;;12.69;93.77;100814.00;6215421;23;20004;-67
2023/09/19 02:35:21;;;;;;;13.27;3.17;;;;;;;12.69;93.57;100823.66;6191431;23;20098;-68
2023/09/19 02:37:50;;;;;;;10.65;3.15;;;;;;;12.62;95.13;100822.91;6241514;22;20004;-68
2023/09/19 02:40:18;;;;;;;13.25;3.42;;;;;;;12.61;94.15;100827.31;6192540;23;20004;-68
2023/09/19 02:42:49;;;;;;;12.38;3.40;;;;;;;12.64;94.08;100826.34;6241391;23;20388;-68
2023/09/19 02:45:18;;;;;;;12.85;3.50;;;;;;;12.64;93.16;100831.63;6241650;23;20000;-68
2023/09/19 02:47:44;;;;;;;11.23;3.00;;;;;;;12.60;93.02;100833.47;6242560;22;20019;-68
2023/09/19 02:50:13;;;;;;;14.60;3.30;;;;;;;12.54;93.32;100833.59;6243422;23;20096;-68
2023/09/19 02:52:43;;;;;;;13.90;3.13;;;;;;;12.56;93.39;100829.16;6218160;23;20153;-67
2023/09/19 02:55:09;;;;;;;10.73;3.47;;;;;;;12.51;93.18;100830.16;6243488;23;20314;-67
2023/09/19 02:57:40;;;;;;;10.20;2.90;;;;;;;12.45;93.17;100831.97;6242911;22;20065;-68
2023/09/19 03:00:10;;;;;;;9.88;2.95;;;;;;;12.43;93.37;100835.56;6244045;23;20000;-68
2023/09/19 03:02:37;;;;;;;10.20;3.58;;;;;;;12.44;91.98;100832.91;6217427;23;20446;-71
2023/09/19 03:05:04;;;;;;;10.82;2.95;;;;;;;12.44;92.40;100843.41;6194024;23;20032;-69
2023/09/19 03:07:29;;;;;;;10.85;2.65;;;;;;;12.41;92.56;100840.84;6217623;23;20043;-69
2023/09/19 03:09:55;;;;;;;12.75;3.20;;;;;;;12.38;91.74;100838.25;6217805;23;20435;-69
2023/09/19 03:12:20;;;;;;;8.68;2.70;;;;;;;12.35;92.09;100835.69;6217312;23;20035;-69
2023/09/19 03:14:46;;;;;;;11.73;3.22;;;;;;;12.36;92.23;100836.59;6192678;23;20031;-69
2023/09/19 03:17:14;;;;;;;12.60;2.70;;;;;;;12.34;91.92;100833.97;6242562;22;20050;-69
2023/09/19 03:19:39;;;;;;;8.43;2.70;;;;;;;12.29;91.62;100841.06;6218753;23;20023;-69
2023/09/19 03:22:05;;;;;;;10.60;3.53;;;;;;;12.27;91.81;100841.09;6217553;23;20423;-69
2023/09/19 03:24:32;;;;;;;11.35;2.95;;;;;;;12.27;91.78;100848.13;6192984;23;20395;-69
2023/09/19 03:26:58;;;;;;;14.13;3.35;;;;;;;12.24;92.02;100832.41;6241823;22;20019;-69
2023/09/19 03:29:25;;;;;;;9.70;2.97;;;;;;;12.21;91.79;100837.72;6193097;23;20012;-69
2023/09/19 03:31:51;;;;;;;12.30;3.25;;;;;;;12.22;92.98;100839.47;6217769;23;20019;-69
2023/09/19 03:34:17;;;;;;;8.63;2.80;;;;;;;12.19;92.22;100839.53;6216778;23;20012;-67
2023/09/19 03:36:42;;;;;;;10.60;2.85;;;;;;;12.22;92.25;100831.56;6218063;23;20081;-67
2023/09/19 03:39:08;;;;;;;10.98;2.88;;;;;;;12.23;91.23;100835.94;6217563;23;20142;-68
2023/09/19 03:41:36;;;;;;;9.07;2.75;;;;;;;12.20;91.82;100842.13;6243458;23;20008;-68
2023/09/19 03:44:01;;;;;;;9.68;2.72;;;;;;;12.17;92.39;100838.66;6192523;23;20318;-67
2023/09/19 03:46:28;;;;;;;9.65;2.72;;;;;;;12.20;91.63;100836.88;6242883;23;20008;-68
2023/09/19 03:48:54;;;;;;;8.15;2.30;;;;;;;12.15;92.47;100827.34;6191871;23;20035;-67
2023/09/19 03:51:20;;;;;;;11.90;3.40;;;;;;;12.18;91.99;100832.53;6193085;23;20012;-67
2023/09/19 03:53:46;;;;;;;9.95;3.08;;;;;;;12.17;91.96;100823.78;6242269;23;20354;-67
2023/09/19 03:56:11;;;;;;;10.63;3.20;;;;;;;12.13;92.99;100817.72;6243480;23;20007;-68
2023/09/19 03:58:39;;;;;;;10.55;3.00;;;;;;;12.16;92.52;100819.41;6242365;22;20008;-68
2023/09/19 04:01:06;;;;;;;9.05;2.55;;;;;;;12.15;92.38;100832.59;6218312;23;20370;-68
2023/09/19 04:03:47;;;;;;;8.63;2.60;;;;;;;12.19;92.24;100821.97;6242566;23;20012;-68
2023/09/19 04:06:12;;;;;;;;;;;;;;;12.25;92.50;100831.50;6199157;23;20012;-68
2023/09/19 04:08:38;;;;;;;11.18;3.00;;;;;;;12.21;92.46;100828.09;6217664;23;19922;-68
2023/09/19 04:11:03;;;;;;;8.60;3.00;;;;;;;12.21;92.53;100821.94;6242983;23;20030;-68
2023/09/19 04:13:29;;;;;;;11.85;3.40;;;;;;;12.20;93.32;100825.50;6242520;23;20000;-67
2023/09/19 04:15:55;;;;;;;8.82;2.67;;;;;;;12.25;92.79;100819.22;6242839;23;20004;-67
2023/09/19 04:18:22;;;;;;;9.75;2.83;;;;;;;12.26;92.73;100822.75;6242372;22;20012;-68
2023/09/19 04:20:51;;;;;;;12.10;3.10;;;;;;;12.32;93.45;100825.25;6218192;23;20012;-67
2023/09/19 04:23:17;;;;;;;12.50;2.87;;;;;;;12.30;93.03;100834.94;6217455;23;20119;-67
2023/09/19 04:25:43;;;;;;;10.27;2.90;;;;;;;12.30;93.54;100842.81;6243055;23;20719;-70
2023/09/19 04:28:12;;;;;;;9.30;3.00;;;;;;;12.33;93.54;100845.38;6216070;23;20004;-68
2023/09/19 04:30:40;;;;;;;8.38;2.75;;;;;;;12.34;93.49;100846.22;6193532;23;20032;-67
2023/09/19 04:33:06;;;;;;;11.38;3.20;;;;;;;12.35;93.73;100846.19;6216566;23;20457;-68
2023/09/19 04:35:32;;;;;;;11.00;3.50;;;;;;;12.38;93.64;100861.06;6240176;23;20390;-68
2023/09/19 04:37:58;;;;;;;13.38;3.53;;;;;;;12.38;94.24;100855.78;6216334;23;20011;-68
2023/09/19 04:40:26;;;;;;;17.63;3.70;;;;;;;12.36;94.18;100862.84;6217401;23;20004;-68
2023/09/19 04:42:56;;;;;;;11.60;3.47;;;;;;;12.38;94.35;100882.94;6217009;23;20012;-67
2023/09/19 04:45:22;;;;;;;13.85;3.20;;;;;;;12.36;94.31;100886.50;6242159;23;20004;-67
2023/09/19 04:47:48;;;;;;;10.70;2.85;;;;;;;12.39;94.37;100887.31;6216297;23;20019;-68
2023/09/19 04:50:13;;;;;;;10.63;2.90;;;;;;;12.40;94.53;100889.03;6217044;23;20063;-67
2023/09/19 04:52:44;;;;;;;9.68;2.67;;;;;;;12.50;93.99;100895.00;6242037;23;20445;-67
2023/09/19 04:55:16;;;;;;;14.50;3.50;;;;;;;12.54;94.04;100898.41;6191630;23;20008;-69
2023/09/19 04:57:47;;;;;;;11.50;3.35;;;;;;;12.57;93.91;100908.88;6241570;22;20014;-68
2023/09/19 05:00:14;;;;;;;10.05;3.00;;;;;;;12.57;94.05;100898.34;6192377;23;20043;-69
2023/09/19 05:02:40;;;;;;;12.35;3.20;;;;;;;12.62;94.26;100897.38;6190675;23;20012;-69
2023/09/19 05:05:16;;;;;;;13.40;3.40;;;;;;;12.66;93.64;100898.19;6242313;23;20010;-69
2023/09/19 05:07:43;;;;;;;8.98;2.85;;;;;;;12.64;94.13;100906.13;6217706;23;20031;-70
2023/09/19 05:10:10;;;;;;;15.45;3.50;;;;;;;12.71;93.48;100895.47;6242187;23;20020;-70
2023/09/19 05:12:35;;;;;;;12.75;3.08;;;;;;;12.67;93.57;100897.31;6190891;23;20425;-70
2023/09/19 05:15:07;;;;;;;9.38;2.85;;;;;;;12.65;94.08;100902.56;6216593;23;20018;-71
2023/09/19 05:17:35;;;;;;;10.40;2.67;;;;;;;12.63;93.86;100901.75;6213840;23;20023;-71
2023/09/19 05:20:15;;;;;;;11.57;3.22;;;;;;;12.62;94.04;100899.16;6242604;23;20004;-70
2023/09/19 05:22:41;;;;;;;13.18;2.90;;;;;;;12.61;94.36;100913.19;6241424;23;20008;-70
2023/09/19 05:25:07;;;;;;;13.90;3.38;;;;;;;12.61;94.23;100913.19;6216857;23;20016;-71
2023/09/19 05:27:33;;;;;;;11.88;3.33;;;;;;;12.59;94.83;100904.47;6215244;23;20024;-70
2023/09/19 05:29:59;;;;;;;12.25;3.20;;;;;;;12.60;95.37;100908.84;6242085;23;20015;-70
2023/09/19 05:32:24;;;;;;;11.48;3.10;;;;;;;12.63;94.55;100914.03;6215716;23;20083;-70
2023/09/19 05:34:53;;;;;;;9.98;2.65;;;;;;;12.60;94.98;100914.94;6242163;23;20012;-70
2023/09/19 05:37:19;;;;;;;10.70;2.97;;;;;;;12.65;94.86;100914.84;6216918;23;20008;-70
2023/09/19 05:39:44;;;;;;;14.07;3.88;;;;;;;12.69;94.51;100915.69;6242478;23;20533;-69
2023/09/19 05:42:10;;;;;;;11.20;3.67;;;;;;;12.65;95.03;100912.22;6191590;23;20430;-69
2023/09/19 05:44:35;;;;;;;9.02;2.80;;;;;;;12.65;95.48;100922.75;6216693;23;20381;-69
2023/09/19 05:47:02;;;;;;;11.10;3.20;;;;;;;12.65;96.18;100922.75;6241359;22;20023;-70
2023/09/19 05:49:28;;;;;;;13.98;3.15;;;;;;;12.67;96.10;100918.34;6190913;23;20012;-70
2023/09/19 05:51:55;;;;;;;10.88;2.92;;;;;;;12.73;95.78;100915.59;6191805;23;20095;-69
2023/09/19 05:54:20;;;;;;;11.13;2.90;;;;;;;12.75;95.76;100913.78;6243039;22;20046;-69
2023/09/19 05:56:47;;;;;;;11.55;3.03;;;;;;;12.80;95.89;100916.31;6241051;23;20374;-70
2023/09/19 05:59:15;;;;;;;11.60;2.83;;;;;;;12.82;95.39;100910.13;6241092;22;20065;-68
2023/09/19 06:01:42;;;;;;;11.30;3.65;;;;;;;12.85;95.67;100903.94;6240947;23;20142;-69
2023/09/19 06:04:07;;;;;;;11.45;3.08;;;;;;;12.83;96.48;100903.13;6241147;23;20031;-69
2023/09/19 06:06:38;;;;;;;12.07;3.38;;;;;;;12.86;96.26;100913.56;6241868;23;20512;-69
2023/09/19 06:09:05;;;;;;;13.05;3.20;;;;;;;12.87;96.04;100906.53;6241001;22;20031;-70
2023/09/19 06:11:34;;;;;;;10.07;3.33;;;;;;;12.90;96.44;100917.00;6216964;23;20012;-70
2023/09/19 06:14:01;;;;;;;11.52;3.33;;;;;;;12.93;96.24;100907.28;6216604;23;20047;-71
2023/09/19 06:16:29;;;;;;;8.93;2.50;;;;;;;12.96;96.30;100909.00;6216766;23;20000;-71
2023/09/19 06:18:55;;;;;;;9.68;2.90;;;;;;;12.95;96.83;100916.00;6240520;22;20012;-70
2023/09/19 06:21:24;;;;;;;11.52;3.22;;;;;;;12.99;96.14;100915.06;6242695;23;20055;-70
2023/09/19 06:23:50;;;;;;;11.63;3.08;;;;;;;13.05;96.17;100913.22;6243422;23;20009;-70
2023/09/19 06:26:16;;;;;;;10.52;2.97;;;;;;;13.11;95.45;100918.34;6218668;23;20208;-70
2023/09/19 06:28:42;;;;;;;15.10;3.03;;;;;;;13.12;96.03;100928.81;6193268;23;20408;-69
2023/09/19 06:31:09;;;;;;;9.32;3.17;;;;;;;13.20;95.27;100931.28;6194735;23;20367;-69
2023/09/19 06:33:39;;;;;;;12.18;3.63;;;;;;;13.23;95.32;100935.63;6218480;23;20015;-68
2023/09/19 06:36:05;;;;;;;11.30;3.35;;;;;;;13.27;94.82;100939.91;6244653;23;20091;-69
2023/09/19 06:38:32;;;;;;;9.07;2.97;;;;;;;13.33;94.38;100939.78;6217310;23;20438;-68
2023/09/19 06:40:58;;;;;;;14.40;3.45;;;;;;;13.34;95.35;100944.16;6194118;23;20031;-69
2023/09/19 06:43:24;;;;;;;14.85;4.07;;;;;;;13.40;95.22;100944.03;6242663;23;20008;-70
2023/09/19 06:45:51;;;;;;;10.68;3.05;;;;;;;13.50;94.87;100945.59;6243610;23;20019;-70
2023/09/19 06:48:18;;;;;;;12.80;3.08;;;;;;;13.55;94.27;100952.50;6216668;23;20093;-70
2023/09/19 06:50:44;;;;;;;12.77;3.30;;;;;;;13.64;95.00;100952.31;6218693;23;20058;-70
2023/09/19 06:53:10;;;;;;;12.77;3.30;;;;;;;13.69;93.56;100955.69;6193478;23;20438;-70
2023/09/19 06:55:36;;;;;;;10.90;3.03;;;;;;;13.77;94.15;100953.75;6218712;23;20012;-70
2023/09/19 06:58:02;;;;;;;14.40;3.38;;;;;;;13.79;94.14;100951.06;6218467;23;20027;-70
2023/09/19 07:00:31;;;;;;;13.88;3.78;;;;;;;13.93;92.46;100948.13;6218553;23;20047;-70
2023/09/19 07:03:08;;;;;;;10.98;3.55;;;;;;;13.98;92.50;100955.03;6242226;23;20457;-69
2023/09/19 07:05:38;;;;;;;10.32;3.25;;;;;;;14.04;91.86;100946.09;6244098;23;20029;-69
2023/09/19 07:08:05;;;;;;;8.07;2.60;;;;;;;14.05;90.43;100942.56;6242510;22;20382;-69
2023/09/19 07:10:32;;;;;;;12.05;3.35;;;;;;;14.12;90.80;100941.50;6217936;23;20012;-69
2023/09/19 07:13:10;;;;;;;10.68;2.97;;;;;;;14.19;91.41;100948.38;6215060;23;20079;-69
2023/09/19 07:15:41;;;;;;;10.82;3.10;;;;;;;14.30;90.55;100957.75;6243067;23;20010;-69
2023/09/19 07:18:09;;;;;;;11.80;3.25;;;;;;;14.52;90.77;100958.94;6245099;22;20015;-69
2023/09/19 07:20:34;;;;;;;13.85;3.83;;;;;;;14.43;90.42;100956.53;6218875;23;20112;-69
2023/09/19 07:23:01;;;;;;;10.07;3.47;;;;;;;14.40;90.18;100951.34;6216649;23;20035;-69
2023/09/19 07:25:27;;;;;;;11.82;3.08;;;;;;;14.59;90.09;100961.41;6243865;23;20012;-69
2023/09/19 07:27:56;;;;;;;13.13;3.22;;;;;;;14.80;88.71;100958.22;6217995;23;20012;-69
2023/09/19 07:30:22;;;;;;;10.95;3.33;;;;;;;15.03;87.21;100959.38;6243422;23;20004;-69
2023/09/19 07:32:48;;;;;;;8.07;3.03;;;;;;;14.92;87.61;100961.44;6244241;22;20446;-70
2023/09/19 07:35:14;;;;;;;8.73;2.88;;;;;;;14.81;87.63;100957.31;6218388;23;20004;-69
2023/09/19 07:37:40;;;;;;;12.43;3.05;;;;;;;14.75;88.37;100954.84;6242120;22;20019;-69
2023/09/19 07:40:09;;;;;;;12.20;3.30;;;;;;;14.84;88.05;100956.34;6217407;23;20022;-69
2023/09/19 07:42:40;;;;;;;10.15;3.45;;;;;;;15.12;87.54;100958.22;6193775;23;20091;-69
2023/09/19 07:45:07;;;;;;;10.77;3.22;;;;;;;15.40;85.75;100956.50;6242828;23;20004;-68
2023/09/19 07:47:33;;;;;;;11.40;3.30;;;;;;;15.38;85.04;100952.19;6241479;22;20008;-69
2023/09/19 07:50:01;;;;;;;13.13;3.08;;;;;;;15.67;86.07;100963.63;6243402;23;20004;-69
2023/09/19 07:52:27;;;;;;;12.13;3.10;;;;;;;15.73;83.96;100961.66;6242054;23;20090;-69
2023/09/19 07:54:53;;;;;;;9.85;3.15;;;;;;;15.87;84.57;100953.31;6217877;23;20012;-68
2023/09/19 07:57:19;;;;;;;12.43;3.33;;;;;;;15.96;83.90;100962.75;6217564;23;20091;-69
2023/09/19 07:59:45;;;;;;;9.50;3.20;;;;;;;15.92;83.04;100961.97;6193465;23;20319;-69
2023/09/19 08:02:15;;;;;;;12.55;3.50;;;;;;;15.92;83.56;100966.41;6242172;23;20000;-70
2023/09/19 08:04:48;;;;;;;10.75;3.50;;;;;;;15.91;83.15;100969.97;6217262;23;20007;-70
2023/09/19 08:07:14;;;;;;;12.52;3.25;;;;;;;15.90;83.70;100969.09;6217897;22;20016;-70
2023/09/19 08:09:40;;;;;;;11.77;2.88;;;;;;;16.03;84.18;100981.91;6167959;23;20008;-70
2023/09/19 08:12:07;;;;;;;13.27;3.47;;;;;;;16.14;82.64;100979.78;6167587;23;20019;-70
2023/09/19 08:14:33;;;;;;;10.23;3.10;;;;;;;16.22;82.69;100980.41;6215993;23;20402;-70
2023/09/19 08:17:00;;;;;;;14.65;3.58;;;;;;;16.26;81.64;100989.97;6168163;22;20047;-72
2023/09/19 08:19:29;;;;;;;10.48;3.25;;;;;;;16.43;81.57;100981.47;6192619;23;20046;-70
2023/09/19 08:22:01;;;;;;;11.50;3.08;;;;;;;16.51;81.72;100985.63;6169603;23;20004;-70
2023/09/19 08:24:28;;;;;;;10.25;3.42;;;;;;;16.37;81.57;100972.88;6214153;23;20047;-71
2023/09/19 08:26:55;;;;;;;12.30;3.17;;;;;;;16.28;80.72;100974.91;6191316;22;20346;-70
2023/09/19 08:29:21;;;;;;;10.45;2.85;;;;;;;16.11;80.64;100971.94;6217667;23;20008;-71
2023/09/19 08:31:49;;;;;;;11.13;3.03;;;;;;;16.13;81.05;100963.97;6192646;23;20342;-70
2023/09/19 08:34:15;;;;;;;11.07;3.35;;;;;;;16.33;81.21;100968.59;6192063;23;20008;-70
2023/09/19 08:36:43;;;;;;;11.23;3.10;;;;;;;16.35;80.07;100966.75;6167368;23;20019;-70
2023/09/19 08:39:08;;;;;;;9.82;3.38;;;;;;;16.69;78.16;100987.63;6217562;23;20087;-70
2023/09/19 08:41:34;;;;;;;11.55;3.17;;;;;;;17.70;76.17;100982.19;6216268;23;20039;-70
2023/09/19 08:44:03;;;;;;;10.35;3.25;;;;;;;18.31;72.63;100975.34;6190944;23;20051;-70
2023/09/19 08:46:31;;;;;;;13.45;3.40;;;;;;;18.38;71.82;100968.84;6193089;23;20076;-71
2023/09/19 08:49:22;;;;;;;9.05;2.58;;;;;;;18.11;74.19;100978.81;6216658;23;20427;-71
2023/09/19 08:51:53;;;;;;;10.77;3.25;;;;;;;17.46;73.83;100976.06;6217678;23;20004;-69
2023/09/19 08:54:31;;;;;;;11.65;3.28;;;;;;;17.34;76.71;100987.97;6217316;23;20061;-71
2023/09/19 08:57:02;;;;;;;13.18;3.78;;;;;;;17.48;75.71;100974.19;6215841;22;20326;-69
2023/09/19 08:59:29;;;;;;;8.95;2.75;;;;;;;17.58;74.55;100970.25;6216639;23;20374;-68
2023/09/19 09:01:56;;;;;;;14.88;3.30;;;;;;;17.56;74.56;100977.41;6192771;23;20038;-68
2023/09/19 09:04:22;;;;;;;14.35;3.13;;;;;;;17.24;74.66;100982.16;6192389;23;20011;-68
2023/09/19 09:06:53;;;;;;;9.05;2.83;;;;;;;17.43;74.88;100971.72;6191935;23;20004;-67
2023/09/19 09:09:19;;;;;;;11.50;2.97;;;;;;;17.47;75.44;100977.78;6239255;23;20074;-67
2023/09/19 09:11:45;;;;;;;14.07;3.60;;;;;;;17.27;76.60;100976.75;6242247;23;20348;-68
2023/09/19 09:14:13;;;;;;;11.75;3.20;;;;;;;17.25;75.49;100975.06;6192088;23;20004;-68
2023/09/19 09:16:38;;;;;;;10.23;3.03;;;;;;;17.47;76.53;100975.13;6242991;23;20047;-68
2023/09/19 09:19:05;;;;;;;9.25;2.70;;;;;;;17.44;74.41;100983.19;6216880;23;20004;-69
2023/09/19 09:21:35;;;;;;;12.57;3.08;;;;;;;17.40;75.56;100974.50;6243867;22;20004;-68
2023/09/19 09:24:30;;;;;;;12.60;3.38;;;;;;;17.66;75.52;100984.06;6193617;23;20007;-67
2023/09/19 09:26:57;;;;;;;10.30;3.10;;;;;;;17.80;76.11;100974.72;6242075;22;20087;-67
2023/09/19 09:29:43;;;;;;;13.10;3.65;;;;;;;17.97;75.17;100972.31;6217461;23;20070;-68
2023/09/19 09:32:20;;;;;;;11.68;3.30;;;;;;;17.82;74.17;100975.53;6242266;23;20038;-69
2023/09/19 09:34:51;;;;;;;12.57;3.42;;;;;;;17.78;73.13;100977.41;6242283;23;20015;-70
2023/09/19 09:37:20;;;;;;;10.77;3.28;;;;;;;17.67;74.05;100969.06;6242256;22;20000;-70
2023/09/19 09:39:58;;;;;;;9.88;2.85;;;;;;;17.79;73.55;100946.50;6193463;23;21685;-69
2023/09/19 09:42:35;;;;;;;12.73;3.45;;;;;;;17.75;73.62;100940.44;6242249;23;20000;-69
2023/09/19 09:48:03;;;;;;;11.93;3.10;;;;;;;17.84;73.63;100955.09;6244523;22;20090;-70
2023/09/19 09:50:44;;;;;;;11.90;3.40;;;;;;;18.03;74.12;100959.69;6241811;23;20012;-68
2023/09/19 09:53:39;;;;;;;11.18;3.03;;;;;;;18.22;73.06;100955.38;6218595;23;20423;-69
2023/09/19 09:56:07;;;;;;;8.77;3.13;;;;;;;18.27;72.60;100953.38;6170315;23;20011;-69
2023/09/19 09:58:40;;;;;;;11.43;2.85;;;;;;;18.20;70.75;100975.78;6241385;22;20442;-70
2023/09/19 10:01:09;;;;;;;7.63;2.90;;;;;;;18.24;70.47;100950.00;6242740;23;20011;-68
2023/09/19 10:03:39;;;;;;;12.95;3.55;;;;;;;18.50;71.90;100964.81;6241532;23;20016;-69
2023/09/19 10:06:26;;;;;;;9.55;2.78;;;;;;;18.33;68.46;100957.56;6217352;23;20043;-70
2023/09/19 10:09:11;;;;;;;11.48;3.45;;;;;;;18.60;71.20;100970.56;6239909;22;20446;-69
2023/09/19 10:11:58;;;;;;;10.88;2.92;;;;;;;18.69;68.70;100972.81;6240734;23;20406;-68
2023/09/19 10:14:31;;;;;;;12.07;3.15;;;;;;;18.59;67.15;100963.53;6241535;22;20004;-68
2023/09/19 10:17:03;;;;;;;11.93;2.63;;;;;;;18.45;68.04;100961.50;6239614;22;20000;-68
2023/09/19 10:19:38;;;;;;;10.50;2.60;;;;;;;18.57;68.50;100954.78;6241027;23;20014;-70
2023/09/19 10:22:08;;;;;;;9.50;2.85;;;;;;;18.69;68.91;100964.84;6241533;23;20036;-69
2023/09/19 10:24:34;;;;;;;;;;;;;;;19.18;69.02;100961.84;6240336;23;20032;-69
2023/09/19 10:27:00;;;;;;;10.43;2.88;;;;;;;19.21;67.67;100957.25;6239959;22;20044;-69
2023/09/19 10:29:29;;;;;;;7.90;2.65;;;;;;;19.10;66.08;100958.69;6240908;23;20008;-70
2023/09/19 10:31:58;;;;;;;8.20;2.80;;;;;;;18.93;65.34;100952.31;6240620;23;20041;-69
2023/09/19 10:34:26;;;;;;;8.32;2.70;;;;;;;18.64;65.44;100951.78;6214185;23;20023;-69
2023/09/19 10:36:52;;;;;;;8.85;3.05;;;;;;;18.76;66.76;100949.53;6241742;22;20007;-68
2023/09/19 10:39:19;;;;;;;7.38;2.53;;;;;;;18.76;65.53;100947.75;6189254;23;20442;-69
2023/09/19 10:41:53;;;;;;;9.85;2.30;;;;;;;18.98;67.12;100945.03;6240296;23;20072;-68
2023/09/19 10:44:23;;;;;;;9.98;2.80;;;;;;;18.87;66.99;100944.66;6241156;23;20387;-69
2023/09/19 10:46:51;;;;;;;9.90;2.70;;;;;;;18.93;66.25;100949.66;6241461;22;20069;-69
2023/09/19 10:49:17;;;;;;;9.98;2.42;;;;;;;19.04;65.81;100950.03;6192103;23;20019;-70
2023/09/19 10:51:45;;;;;;;8.10;2.60;;;;;;;19.07;65.84;100951.72;6192236;23;20008;-69
2023/09/19 10:54:17;;;;;;;10.43;2.38;;;;;;;19.28;66.15;100947.22;6216494;23;20012;-70
2023/09/19 10:56:49;;;;;;;9.43;3.15;;;;;;;19.25;63.82;100949.13;6241881;23;20004;-69
2023/09/19 10:59:20;;;;;;;13.05;2.78;;;;;;;19.24;62.77;100944.75;6216424;23;20107;-70
2023/09/19 11:01:57;;;;;;;10.65;2.40;;;;;;;19.20;63.37;100942.22;6172798;23;20023;-69
2023/09/19 11:04:34;;;;;;;9.10;2.25;;;;;;;19.11;62.13;100923.22;6203643;23;20066;-69
2023/09/19 11:07:03;;;;;;;6.85;2.05;;;;;;;19.18;64.08;100932.63;6218915;22;20019;-68
2023/09/19 11:09:48;;;;;;;7.95;2.15;;;;;;;19.15;63.69;100923.00;6197496;23;20048;-69
2023/09/19 11:12:29;;;;;;;9.10;2.10;;;;;;;19.10;63.85;100927.66;6218206;23;20024;-69
2023/09/19 11:14:55;;;;;;;6.38;2.25;;;;;;;19.07;65.12;100919.00;6243080;23;20008;-68
2023/09/19 11:17:21;;;;;;;9.45;2.58;;;;;;;18.92;62.74;100918.75;6243408;22;20015;-70
2023/09/19 11:20:15;;;;;;;7.78;2.00;;;;;;;19.07;63.53;100919.00;6242854;23;20082;-70
2023/09/19 11:22:50;;;;;;;8.25;2.67;;;;;;;19.09;64.84;100902.03;6243911;23;20000;-69
2023/09/19 11:25:31;;;;;;;8.38;2.28;;;;;;;19.17;65.04;100901.69;6243418;23;20338;-68
2023/09/19 11:28:06;;;;;;;8.85;2.00;;;;;;;19.23;64.54;100903.19;6243052;22;20012;-69
2023/09/19 11:30:33;;;;;;;8.18;2.05;;;;;;;19.18;64.24;100891.00;6243266;23;20004;-70
2023/09/19 11:33:28;;;;;;;7.97;2.15;;;;;;;19.35;64.39;100903.47;6216241;23;20090;-68